createdAt,value
2017-11-24T00:00:16.837Z,15.97
2017-11-24T00:02:45.216Z,15.23
2017-11-24T00:05:13.564Z,10.30
2017-11-24T00:07:41.913Z,10.80
2017-11-24T00:10:10.249Z,10.10
2017-11-24T00:12:38.604Z,11.50
2017-11-24T00:15:06.976Z,9.70
2017-11-24T00:17:35.324Z,10.20
2017-11-24T00:20:03.664Z,7.70
2017-11-24T00:22:32.003Z,12.07
2017-11-24T00:25:00.344Z,11.10
2017-11-24T00:27:28.724Z,11.80
2017-11-24T00:29:57.066Z,12.67
2017-11-24T00:32:25.403Z,6.43
2017-11-24T00:34:53.744Z,14.20
2017-11-24T00:37:22.092Z,10.00
2017-11-24T00:39:50.489Z,14.57
2017-11-24T00:42:18.838Z,13.03
2017-11-24T00:44:47.212Z,3.37
2017-11-24T00:47:15.544Z,6.00
2017-11-24T00:49:43.876Z,2.70
2017-11-24T00:52:12.214Z,4.63
2017-11-24T00:54:40.554Z,7.70
2017-11-24T00:57:08.921Z,6.10
2017-11-24T00:59:37.252Z,8.63
2017-11-24T01:02:05.601Z,9.40
2017-11-24T01:04:33.937Z,8.70
2017-11-24T01:07:02.279Z,9.33
2017-11-24T01:09:30.667Z,7.77
2017-11-24T01:11:59.012Z,7.50
2017-11-24T01:14:27.376Z,12.73
2017-11-24T01:16:55.710Z,8.53
2017-11-24T01:19:24.048Z,6.97
2017-11-24T01:21:52.416Z,9.30
2017-11-24T01:24:20.747Z,8.23
2017-11-24T01:26:49.079Z,8.90
2017-11-24T01:29:17.428Z,5.30
2017-11-24T01:31:45.803Z,10.00
2017-11-24T01:34:14.152Z,6.97
2017-11-24T01:36:42.518Z,12.10
2017-11-24T01:39:10.873Z,9.70
2017-11-24T01:41:39.207Z,8.20
2017-11-24T01:44:07.554Z,9.53
2017-11-24T01:46:36.051Z,7.07
2017-11-24T01:49:04.383Z,7.43
2017-11-24T01:51:32.724Z,8.23
2017-11-24T01:54:01.060Z,7.23
2017-11-24T01:56:29.413Z,8.17
2017-11-24T01:58:57.782Z,7.20
2017-11-24T02:01:26.125Z,11.00
2017-11-24T02:03:54.470Z,4.83
2017-11-24T02:06:22.799Z,8.30
2017-11-24T02:08:51.136Z,7.20
2017-11-24T02:11:19.513Z,4.80
2017-11-24T02:13:47.860Z,9.53
2017-11-24T02:16:16.486Z,7.20
2017-11-24T02:18:44.830Z,10.43
2017-11-24T02:21:13.180Z,9.00
2017-11-24T02:23:41.550Z,8.93
2017-11-24T02:26:09.882Z,7.93
2017-11-24T02:28:38.237Z,14.97
2017-11-24T02:31:06.568Z,12.13
2017-11-24T02:33:34.923Z,10.00
2017-11-24T02:36:03.288Z,9.30
2017-11-24T02:38:31.632Z,10.73
2017-11-24T02:40:59.972Z,7.97
2017-11-24T02:43:28.317Z,17.47
2017-11-24T02:45:56.649Z,7.53
2017-11-24T02:48:25.120Z,11.03
2017-11-24T02:50:53.463Z,8.63
2017-11-24T02:53:21.801Z,14.33
2017-11-24T02:55:50.150Z,8.47
2017-11-24T02:58:18.507Z,6.50
2017-11-24T03:00:46.973Z,6.30
2017-11-24T03:03:15.323Z,6.87
2017-11-24T03:05:43.652Z,8.50
2017-11-24T03:08:12.008Z,9.93
2017-11-24T03:10:40.468Z,11.30
2017-11-24T03:13:08.811Z,12.87
2017-11-24T03:15:37.160Z,14.60
2017-11-24T03:18:05.511Z,10.00
2017-11-24T03:20:33.862Z,11.80
2017-11-24T03:23:02.272Z,7.80
2017-11-24T03:25:30.612Z,9.27
2017-11-24T03:27:58.974Z,8.47
2017-11-24T03:30:27.342Z,10.30
2017-11-24T03:32:55.708Z,6.67
2017-11-24T03:35:24.083Z,11.43
2017-11-24T03:37:52.455Z,8.67
2017-11-24T03:40:20.801Z,5.80
2017-11-24T03:42:49.149Z,10.67
2017-11-24T03:45:17.497Z,5.87
2017-11-24T03:47:45.848Z,4.10
2017-11-24T03:50:14.223Z,6.00
2017-11-24T03:52:42.590Z,4.13
2017-11-24T03:55:10.936Z,5.97
2017-11-24T03:57:39.282Z,5.70
2017-11-24T04:00:30.277Z,6.20
2017-11-24T04:02:58.659Z,5.83
2017-11-24T04:05:27.060Z,7.53
2017-11-24T04:07:55.399Z,5.17
2017-11-24T04:10:23.760Z,7.90
2017-11-24T04:12:52.134Z,7.40
2017-11-24T04:15:20.488Z,7.90
2017-11-24T04:17:48.840Z,7.00
2017-11-24T04:20:17.204Z,7.77
2017-11-24T04:22:45.550Z,8.90
2017-11-24T04:25:13.941Z,10.23
2017-11-24T04:27:42.303Z,8.23
2017-11-24T04:30:10.645Z,7.10
2017-11-24T04:32:38.994Z,10.80
2017-11-24T04:35:07.361Z,8.30
2017-11-24T04:37:35.995Z,7.47
2017-11-24T04:40:04.348Z,8.73
2017-11-24T04:42:32.713Z,7.73
2017-11-24T04:45:01.057Z,6.53
2017-11-24T04:47:29.402Z,11.07
2017-11-24T04:49:57.751Z,9.03
2017-11-24T04:52:26.100Z,9.90
2017-11-24T04:54:54.566Z,5.87
2017-11-24T04:57:22.912Z,6.13
2017-11-24T04:59:51.291Z,5.70
2017-11-24T05:02:19.634Z,6.70
2017-11-24T05:04:47.975Z,5.70
2017-11-24T05:07:16.445Z,5.70
2017-11-24T05:09:44.791Z,6.97
2017-11-24T05:12:13.135Z,8.77
2017-11-24T05:14:41.507Z,7.50
2017-11-24T05:17:09.855Z,10.33
2017-11-24T05:19:38.228Z,10.90
2017-11-24T05:22:06.592Z,8.50
2017-11-24T05:24:34.945Z,7.93
2017-11-24T05:27:03.284Z,9.87
2017-11-24T05:29:31.640Z,12.33
2017-11-24T05:32:00.047Z,8.63
2017-11-24T05:34:28.384Z,11.73
2017-11-24T05:36:56.751Z,5.27
2017-11-24T05:39:25.095Z,6.97
2017-11-24T05:41:53.436Z,6.70
2017-11-24T05:44:21.778Z,8.20
2017-11-24T05:46:50.127Z,7.30
2017-11-24T05:49:18.492Z,7.43
2017-11-24T05:51:46.844Z,9.23
2017-11-24T05:54:15.184Z,6.67
2017-11-24T05:56:43.525Z,5.70
2017-11-24T05:59:11.869Z,7.13
2017-11-24T06:01:40.243Z,8.33
2017-11-24T06:04:08.584Z,9.00
2017-11-24T06:06:36.926Z,13.07
2017-11-24T06:09:05.263Z,9.97
2017-11-24T06:11:33.610Z,12.07
2017-11-24T06:14:01.984Z,6.77
2017-11-24T06:16:30.316Z,11.00
2017-11-24T06:18:58.678Z,11.07
2017-11-24T06:21:27.213Z,11.17
2017-11-24T06:23:56.293Z,14.80
2017-11-24T06:26:24.702Z,7.67
2017-11-24T06:28:53.055Z,6.97
2017-11-24T06:31:21.393Z,8.07
2017-11-24T06:33:49.737Z,15.00
2017-11-24T06:36:18.096Z,7.60
2017-11-24T06:38:46.465Z,8.40
2017-11-24T06:41:14.806Z,5.20
2017-11-24T06:43:43.228Z,11.47
2017-11-24T06:46:11.577Z,7.00
2017-11-24T06:48:40.324Z,6.57
2017-11-24T06:51:08.709Z,6.30
2017-11-24T06:53:37.049Z,9.33
2017-11-24T06:56:05.383Z,13.93
2017-11-24T06:58:33.723Z,6.70
2017-11-24T07:01:02.067Z,5.10
2017-11-24T07:03:30.450Z,10.57
2017-11-24T07:05:58.798Z,9.00
2017-11-24T07:08:27.164Z,12.53
2017-11-24T07:10:55.497Z,7.20
2017-11-24T07:13:23.848Z,6.03
2017-11-24T07:15:52.213Z,10.90
2017-11-24T07:18:20.557Z,10.20
2017-11-24T07:20:48.924Z,7.60
2017-11-24T07:23:17.275Z,6.67
2017-11-24T07:25:45.600Z,8.23
2017-11-24T07:28:13.968Z,5.57
2017-11-24T07:30:42.309Z,8.17
2017-11-24T07:33:10.648Z,6.93
2017-11-24T07:35:38.996Z,6.20
2017-11-24T07:38:07.335Z,7.00
2017-11-24T07:40:35.711Z,15.10
2017-11-24T07:43:04.044Z,7.73
2017-11-24T07:45:32.391Z,9.50
2017-11-24T07:48:00.732Z,11.07
2017-11-24T07:50:29.073Z,9.50
2017-11-24T07:52:57.452Z,5.83
2017-11-24T07:55:25.795Z,15.57
2017-11-24T07:57:54.171Z,11.13
2017-11-24T08:00:22.511Z,8.80
2017-11-24T08:02:50.852Z,11.93
2017-11-24T08:05:19.275Z,6.73
2017-11-24T08:07:47.614Z,6.40
2017-11-24T08:10:16.837Z,11.67
2017-11-24T08:12:45.188Z,11.93
2017-11-24T08:15:13.534Z,3.83
2017-11-24T08:17:41.913Z,3.00
2017-11-24T08:20:10.264Z,3.80
2017-11-24T08:22:38.609Z,4.47
2017-11-24T08:25:06.951Z,6.00
2017-11-24T08:27:35.292Z,5.17
2017-11-24T08:30:03.685Z,2.80
2017-11-24T08:32:32.020Z,2.27
2017-11-24T08:35:00.364Z,2.83
2017-11-24T08:37:28.712Z,3.10
2017-11-24T08:39:57.065Z,2.50
2017-11-24T08:42:25.432Z,2.77
2017-11-24T08:44:53.774Z,9.43
2017-11-24T08:47:27.764Z,2.87
2017-11-24T08:49:56.101Z,4.50
2017-11-24T08:52:24.436Z,3.60
2017-11-24T08:54:52.775Z,9.77
2017-11-24T08:57:21.137Z,11.07
2017-11-24T08:59:49.515Z,8.37
2017-11-24T09:02:17.881Z,10.33
2017-11-24T09:04:46.219Z,6.90
2017-11-24T09:07:14.577Z,2.60
2017-11-24T09:09:42.912Z,0.70
2017-11-24T09:12:11.285Z,0.90
2017-11-24T09:14:39.631Z,1.03
2017-11-24T09:17:07.965Z,0.50
2017-11-24T09:19:36.313Z,0.50
2017-11-24T09:22:04.651Z,0.50
2017-11-24T09:24:33.031Z,1.33
2017-11-24T09:27:01.372Z,0.80
2017-11-24T09:29:29.712Z,0.50
2017-11-24T09:31:58.060Z,0.60
2017-11-24T09:34:26.399Z,0.60
2017-11-24T09:36:54.772Z,0.70
2017-11-24T09:39:23.104Z,0.70
2017-11-24T09:41:51.456Z,0.50
2017-11-24T09:44:19.794Z,0.50
2017-11-24T09:46:48.143Z,0.60
2017-11-24T09:49:16.519Z,0.90
2017-11-24T09:51:44.864Z,0.60
2017-11-24T09:54:13.211Z,0.60
2017-11-24T09:56:41.571Z,3.13
2017-11-24T09:59:09.912Z,0.70
2017-11-24T10:01:38.386Z,1.07
2017-11-24T10:04:06.717Z,1.60
2017-11-24T10:06:35.053Z,0.87
2017-11-24T10:09:03.395Z,1.17
2017-11-24T10:11:31.748Z,1.50
2017-11-24T10:14:00.224Z,0.70
2017-11-24T10:16:28.568Z,2.00
2017-11-24T10:18:56.910Z,1.40
2017-11-24T10:21:30.729Z,1.07
2017-11-24T10:23:59.071Z,1.73
2017-11-24T10:26:27.422Z,0.80
2017-11-24T10:28:55.784Z,3.40
2017-11-24T10:31:24.154Z,1.90
2017-11-24T10:33:52.492Z,0.97
2017-11-24T10:36:20.835Z,1.37
2017-11-24T10:38:49.176Z,1.00
2017-11-24T10:41:17.522Z,1.30
2017-11-24T10:43:45.904Z,1.83
2017-11-24T10:46:14.261Z,5.27
2017-11-24T10:48:42.638Z,0.60
2017-11-24T10:51:10.987Z,0.67
2017-11-24T10:53:39.331Z,0.70
2017-11-24T10:56:07.690Z,1.73
2017-11-24T10:58:36.027Z,0.80
2017-11-24T11:01:04.396Z,0.57
2017-11-24T11:03:32.744Z,0.50
2017-11-24T11:06:01.095Z,2.13
2017-11-24T11:08:29.441Z,0.60
2017-11-24T11:10:57.820Z,0.50
2017-11-24T11:13:26.170Z,3.70
2017-11-24T11:15:54.515Z,2.93
2017-11-24T11:18:22.858Z,1.23
2017-11-24T11:20:51.215Z,0.80
2017-11-24T11:23:19.597Z,0.70
2017-11-24T11:25:47.934Z,6.40
2017-11-24T11:28:16.276Z,2.10
2017-11-24T11:30:44.631Z,2.40
2017-11-24T11:33:12.980Z,0.80
2017-11-24T11:35:41.364Z,0.67
2017-11-24T11:38:09.702Z,0.80
2017-11-24T11:40:38.039Z,0.60
2017-11-24T11:43:06.386Z,0.60
2017-11-24T11:45:34.745Z,1.20
2017-11-24T11:48:03.109Z,1.20
2017-11-24T11:50:31.460Z,1.33
2017-11-24T11:52:59.791Z,1.60
2017-11-24T11:55:28.139Z,1.20
2017-11-24T11:57:56.480Z,2.37
2017-11-24T12:00:24.862Z,5.67
2017-11-24T12:02:53.215Z,3.20
2017-11-24T12:05:21.556Z,2.80
2017-11-24T12:07:49.909Z,1.53
2017-11-24T12:10:18.257Z,1.43
2017-11-24T12:12:46.642Z,1.20
2017-11-24T12:15:14.975Z,1.97
2017-11-24T12:17:43.330Z,0.90
2017-11-24T12:20:11.677Z,0.97
2017-11-24T12:22:40.012Z,0.93
2017-11-24T12:25:08.392Z,1.30
2017-11-24T12:27:36.737Z,3.43
2017-11-24T12:30:05.080Z,2.10
2017-11-24T12:32:33.427Z,2.60
2017-11-24T12:35:01.789Z,2.23
2017-11-24T12:37:30.168Z,2.00
2017-11-24T12:39:58.611Z,3.10
2017-11-24T12:42:26.958Z,3.00
2017-11-24T12:44:55.334Z,2.20
2017-11-24T12:47:23.689Z,1.80
2017-11-24T12:49:52.053Z,2.60
2017-11-24T12:52:20.404Z,2.00
2017-11-24T12:54:48.748Z,1.80
2017-11-24T12:57:17.128Z,2.13
2017-11-24T12:59:45.470Z,2.47
2017-11-24T13:02:13.827Z,3.03
2017-11-24T13:04:42.163Z,4.10
2017-11-24T13:07:10.660Z,4.30
2017-11-24T13:09:39.028Z,6.03
2017-11-24T13:12:07.384Z,6.20
2017-11-24T13:14:35.736Z,3.63
2017-11-24T13:17:04.071Z,4.90
2017-11-24T13:19:32.412Z,5.13
2017-11-24T13:22:00.781Z,5.57
2017-11-24T13:24:29.152Z,4.17
2017-11-24T13:26:57.491Z,4.40
2017-11-24T13:29:25.842Z,7.30
2017-11-24T13:31:54.177Z,7.27
2017-11-24T13:34:22.823Z,7.80
2017-11-24T13:36:51.200Z,9.43
2017-11-24T13:39:19.537Z,11.47
2017-11-24T13:41:47.887Z,11.60
2017-11-24T13:44:16.240Z,13.57
2017-11-24T13:46:45.475Z,12.00
2017-11-24T13:49:13.948Z,12.47
2017-11-24T13:51:42.298Z,11.03
2017-11-24T13:54:10.647Z,12.67
2017-11-24T13:56:38.983Z,14.63
2017-11-24T13:59:07.332Z,16.17
2017-11-24T14:01:35.672Z,18.37
2017-11-24T14:04:04.045Z,12.73
2017-11-24T14:06:32.392Z,14.03
2017-11-24T14:09:00.743Z,13.60
2017-11-24T14:11:29.080Z,15.27
2017-11-24T14:13:57.435Z,17.13
2017-11-24T14:16:25.799Z,15.43
2017-11-24T14:18:54.143Z,19.57
2017-11-24T14:21:22.505Z,14.07
2017-11-24T14:23:50.839Z,12.80
2017-11-24T14:26:19.180Z,14.87
2017-11-24T14:28:47.543Z,16.03
2017-11-24T14:31:15.889Z,14.37
2017-11-24T14:33:44.224Z,9.63
2017-11-24T14:36:12.570Z,16.07
2017-11-24T14:38:41.047Z,13.97
2017-11-24T14:41:09.388Z,12.27
2017-11-24T14:43:37.730Z,11.30
2017-11-24T14:46:06.092Z,12.07
2017-11-24T14:48:34.466Z,17.40
2017-11-24T14:51:02.974Z,15.97
2017-11-24T14:53:31.367Z,13.43
2017-11-24T14:55:59.700Z,13.23
2017-11-24T14:58:28.037Z,10.43
2017-11-24T15:00:56.393Z,11.10
2017-11-24T15:03:24.853Z,14.63
2017-11-24T15:05:53.200Z,16.43
2017-11-24T15:08:21.537Z,13.00
2017-11-24T15:10:49.872Z,14.53
2017-11-24T15:13:18.221Z,11.73
2017-11-24T15:15:46.606Z,16.40
2017-11-24T15:18:14.944Z,16.63
2017-11-24T15:20:43.284Z,14.70
2017-11-24T15:23:11.632Z,15.73
2017-11-24T15:25:39.980Z,12.53
2017-11-24T15:28:08.341Z,19.67
2017-11-24T15:30:36.681Z,13.07
2017-11-24T15:33:05.016Z,12.00
2017-11-24T15:35:33.365Z,9.37
2017-11-24T15:38:01.708Z,14.43
2017-11-24T15:40:30.076Z,13.80
2017-11-24T15:42:58.449Z,16.97
2017-11-24T15:45:26.824Z,14.33
2017-11-24T15:47:55.164Z,14.33
2017-11-24T15:50:23.509Z,13.37
2017-11-24T15:52:51.880Z,16.13
2017-11-24T15:55:20.224Z,20.57
2017-11-24T15:57:48.567Z,18.80
2017-11-24T16:00:16.925Z,16.67
2017-11-24T16:02:45.279Z,17.07
2017-11-24T16:05:13.647Z,11.83
2017-11-24T16:07:42.001Z,15.30
2017-11-24T16:10:10.350Z,15.37
2017-11-24T16:12:38.685Z,15.87
2017-11-24T16:15:07.025Z,20.47
2017-11-24T16:17:35.403Z,20.50
2017-11-24T16:20:03.744Z,27.77
2017-11-24T16:22:32.138Z,17.60
2017-11-24T16:25:00.483Z,18.73
2017-11-24T16:27:28.832Z,23.10
2017-11-24T16:29:57.306Z,19.00
2017-11-24T16:32:25.685Z,25.73
2017-11-24T16:34:54.104Z,22.87
2017-11-24T16:37:22.464Z,26.57
2017-11-24T16:39:50.803Z,17.70
2017-11-24T16:42:19.471Z,14.70
2017-11-24T16:44:48.075Z,13.77
2017-11-24T16:47:16.492Z,15.40
2017-11-24T16:49:44.845Z,15.73
2017-11-24T16:52:13.204Z,14.27
2017-11-24T16:54:41.575Z,16.73
2017-11-24T16:57:09.932Z,18.87
2017-11-24T16:59:38.284Z,21.50
2017-11-24T17:02:07.487Z,22.57
2017-11-24T17:04:35.828Z,21.63
2017-11-24T17:07:04.200Z,19.57
2017-11-24T17:09:32.558Z,24.23
2017-11-24T17:12:00.903Z,21.27
2017-11-24T17:14:29.252Z,20.93
2017-11-24T17:16:57.617Z,13.33
2017-11-24T17:19:26.071Z,14.40
2017-11-24T17:21:54.416Z,12.60
2017-11-24T17:24:22.751Z,16.30
2017-11-24T17:26:51.098Z,13.20
2017-11-24T17:29:19.437Z,16.33
2017-11-24T17:31:47.832Z,15.83
2017-11-24T17:34:16.181Z,16.00
2017-11-24T17:36:44.533Z,17.43
2017-11-24T17:39:12.880Z,12.13
2017-11-24T17:41:41.213Z,11.23
2017-11-24T17:44:09.583Z,14.57
2017-11-24T17:46:37.921Z,11.83
2017-11-24T17:49:06.273Z,12.10
2017-11-24T17:51:34.618Z,11.90
2017-11-24T17:54:02.970Z,10.53
2017-11-24T17:56:31.332Z,13.50
2017-11-24T17:58:59.664Z,9.00
2017-11-24T18:01:28.000Z,9.97
2017-11-24T18:03:56.345Z,12.40
2017-11-24T18:06:24.688Z,9.03
2017-11-24T18:08:53.039Z,7.83
2017-11-24T18:11:21.373Z,10.90
2017-11-24T18:13:49.711Z,8.97
2017-11-24T18:16:18.065Z,7.30
2017-11-24T18:18:46.404Z,8.47
2017-11-24T18:21:14.774Z,13.03
2017-11-24T18:23:43.118Z,19.90
2017-11-24T18:26:11.474Z,12.87
2017-11-24T18:28:39.807Z,12.40
2017-11-24T18:31:08.157Z,15.97
2017-11-24T18:33:36.622Z,15.43
2017-11-24T18:36:04.960Z,13.20
2017-11-24T18:38:33.304Z,15.13
2017-11-24T18:41:01.645Z,17.10
2017-11-24T18:43:29.984Z,13.67
2017-11-24T18:45:58.468Z,15.03
2017-11-24T18:48:26.813Z,14.80
2017-11-24T18:50:55.153Z,13.70
2017-11-24T18:53:23.492Z,19.67
2017-11-24T18:55:51.832Z,15.87
2017-11-24T18:58:20.205Z,17.83
2017-11-24T19:00:48.554Z,15.60
2017-11-24T19:03:16.923Z,16.03
2017-11-24T19:05:45.271Z,15.20
2017-11-24T19:08:13.625Z,12.55
2017-11-24T19:10:42.100Z,18.90
2017-11-24T19:13:10.444Z,13.50
2017-11-24T19:15:38.791Z,17.97
2017-11-24T19:18:07.130Z,25.80
2017-11-24T19:20:35.466Z,13.77
2017-11-24T19:23:03.834Z,15.30
2017-11-24T19:25:32.170Z,14.00
2017-11-24T19:28:00.524Z,17.77
2017-11-24T19:30:28.866Z,13.60
2017-11-24T19:32:57.225Z,16.08
2017-11-24T19:35:25.592Z,15.03
2017-11-24T19:37:53.936Z,16.60
2017-11-24T19:40:23.073Z,13.13
2017-11-24T19:42:51.403Z,14.00
2017-11-24T19:45:19.746Z,13.90
2017-11-24T19:47:48.244Z,16.93
2017-11-24T19:50:16.597Z,14.13
2017-11-24T19:52:44.939Z,13.60
2017-11-24T19:55:13.275Z,16.00
2017-11-24T19:57:41.628Z,14.30
2017-11-24T20:00:10.019Z,16.40
2017-11-24T20:02:38.351Z,13.53
2017-11-24T20:05:06.697Z,12.73
2017-11-24T20:07:35.046Z,13.33
2017-11-24T20:10:03.410Z,14.13
2017-11-24T20:12:31.779Z,11.27
2017-11-24T20:15:00.132Z,13.02
2017-11-24T20:17:28.471Z,15.70
2017-11-24T20:19:56.828Z,15.05
2017-11-24T20:22:25.327Z,15.10
2017-11-24T20:24:53.720Z,15.80
2017-11-24T20:27:22.071Z,19.02
2017-11-24T20:29:50.421Z,19.30
2017-11-24T20:32:18.781Z,15.30
2017-11-24T20:34:47.122Z,14.20
2017-11-24T20:37:15.510Z,16.02
2017-11-24T20:39:43.866Z,19.62
2017-11-24T20:42:12.337Z,23.27
2017-11-24T20:44:40.675Z,15.80
2017-11-24T20:47:09.022Z,13.80
2017-11-24T20:49:37.381Z,16.40
2017-11-24T20:52:05.732Z,18.08
2017-11-24T20:54:34.104Z,16.20
2017-11-24T20:57:02.444Z,17.37
2017-11-24T20:59:30.789Z,20.30
2017-11-24T21:01:59.136Z,15.30
2017-11-24T21:04:27.502Z,14.37
2017-11-24T21:06:55.859Z,17.48
2017-11-24T21:09:24.205Z,16.23
2017-11-24T21:11:52.571Z,16.80
2017-11-24T21:14:20.908Z,17.33
2017-11-24T21:16:49.282Z,15.70
2017-11-24T21:19:17.621Z,12.20
2017-11-24T21:21:45.972Z,13.17
2017-11-24T21:24:14.332Z,14.80
2017-11-24T21:26:42.683Z,19.45
2017-11-24T21:29:11.026Z,15.23
2017-11-24T21:31:39.367Z,16.73
2017-11-24T21:34:07.703Z,16.40
2017-11-24T21:36:36.073Z,15.37
2017-11-24T21:39:04.412Z,13.47
2017-11-24T21:41:32.747Z,15.43
2017-11-24T21:44:01.091Z,15.57
2017-11-24T21:46:29.440Z,11.87
2017-11-24T21:48:57.847Z,15.63
2017-11-24T21:51:26.200Z,11.20
2017-11-24T21:53:54.541Z,11.40
2017-11-24T21:56:22.880Z,12.23
2017-11-24T21:58:51.226Z,13.83
2017-11-24T22:01:19.616Z,20.60
2017-11-24T22:03:48.009Z,12.90
2017-11-24T22:06:16.344Z,12.83
2017-11-24T22:08:44.684Z,11.90
2017-11-24T22:11:13.024Z,11.07
2017-11-24T22:13:41.400Z,11.80
2017-11-24T22:16:09.740Z,13.50
2017-11-24T22:18:38.078Z,12.13
2017-11-24T22:21:06.428Z,12.23
2017-11-24T22:23:34.901Z,11.60
2017-11-24T22:26:03.424Z,11.50
2017-11-24T22:28:31.782Z,11.83
2017-11-24T22:31:00.131Z,13.37
2017-11-24T22:33:28.456Z,11.87
2017-11-24T22:35:56.792Z,10.03
2017-11-24T22:38:25.262Z,12.30
2017-11-24T22:40:53.601Z,12.90
2017-11-24T22:43:21.944Z,14.30
2017-11-24T22:45:50.281Z,15.63
2017-11-24T22:48:18.623Z,10.67
2017-11-24T22:50:46.987Z,14.70
2017-11-24T22:53:15.332Z,11.00
2017-11-24T22:55:43.673Z,14.70
2017-11-24T22:58:12.016Z,11.73
2017-11-24T23:00:40.352Z,10.87
2017-11-24T23:03:08.811Z,10.07
2017-11-24T23:05:37.159Z,14.23
2017-11-24T23:08:05.509Z,11.57
2017-11-24T23:10:33.850Z,11.03
2017-11-24T23:13:02.192Z,12.90
2017-11-24T23:15:30.660Z,13.93
2017-11-24T23:17:59.001Z,15.03
2017-11-24T23:20:27.343Z,16.20
2017-11-24T23:22:55.684Z,18.73
2017-11-24T23:25:24.025Z,13.10
2017-11-24T23:27:52.709Z,11.50
2017-11-24T23:30:21.111Z,8.60
2017-11-24T23:32:49.444Z,18.60
2017-11-24T23:35:17.777Z,9.23
2017-11-24T23:37:46.122Z,11.53
2017-11-24T23:40:14.535Z,9.73
2017-11-24T23:42:42.886Z,11.43
2017-11-24T23:45:11.218Z,7.97
2017-11-24T23:47:39.551Z,10.70
2017-11-24T23:50:07.884Z,8.20
2017-11-24T23:52:36.249Z,10.87
2017-11-24T23:55:04.590Z,11.33
2017-11-24T23:57:32.924Z,14.70
